Time;durP1;ratioP1;P1;durP2;ratioP2;P2;SDS_P1;SDS_P2;PMS_P1;PMS_P2;Temp;Humidity;BMP_temperature;BMP_pressure;BME280_temperature;BME280_humidity;BME280_pressure;Samples;Min_cycle;Max_cycle;Signal;HPM_P1;HPM_P2
2023/02/04 00:00:20;;;;;;;;;21.50;19.25;;;;;4.53;49.82;101308.59;146626;576;46012;-72
2023/02/04 00:03:22;;;;;;;;;31.50;28.25;;;;;4.56;50.23;101307.19;146628;636;45021;-73
2023/02/04 00:06:46;;;;;;;;;27.00;22.50;;;;;4.53;49.98;101303.47;146627;630;46012;-72
2023/02/04 00:10:09;;;;;;;;;20.50;17.00;;;;;4.48;50.26;101317.59;146628;563;46010;-73
2023/02/04 00:13:09;;;;;;;;;35.25;26.00;;;;;4.49;50.02;101306.56;146629;596;45012;-74
2023/02/04 00:16:02;;;;;;;;;40.50;32.00;;;;;4.54;51.58;101306.16;146620;570;46020;-75
2023/02/04 00:19:19;;;;;;;;;38.25;32.00;;;;;2.88;51.04;101010.72;146627;625;46013;-79
2023/02/04 00:22:14;;;;;;;;;26.00;25.75;;;;;4.44;51.83;101303.59;146630;569;46010;-73
2023/02/04 00:25:26;;;;;;;;;30.75;24.50;;;;;4.36;51.37;101300.38;146627;768;46014;-75
2023/02/04 00:28:18;;;;;;;;;40.25;33.75;;;;;4.36;51.74;101302.03;146630;758;45010;-73
2023/02/04 00:31:14;;;;;;;;;50.50;41.50;;;;;4.33;51.89;101305.25;146628;569;46910;-74
2023/02/04 00:34:28;;;;;;;;;61.00;48.00;;;;;4.35;52.80;101290.84;146630;569;45011;-73
2023/02/04 00:37:40;;;;;;;;;56.75;46.00;;;;;4.29;53.24;101287.78;146626;774;46012;-75
2023/02/04 00:40:41;;;;;;;;;54.00;44.25;;;;;4.25;53.09;101282.25;146629;612;45020;-74
2023/02/04 00:43:46;;;;;;;;;;;;;;;;;;;;;
2023/02/04 00:46:48;;;;;;;;;51.00;39.50;;;;;4.13;53.85;101267.59;146606;606;46020;-75
2023/02/04 00:49:46;;;;;;;;;46.00;34.75;;;;;4.10;53.85;101258.75;146607;702;46017;-74
2023/02/04 00:53:00;;;;;;;;;35.75;32.25;;;;;4.11;52.96;101261.47;146608;692;46010;-73
2023/02/04 00:56:03;;;;;;;;;34.25;29.25;;;;;4.14;53.08;101259.16;146607;648;46016;-74
2023/02/04 00:59:18;;;;;;;;;29.75;26.00;;;;;4.21;52.49;101242.59;146607;635;46029;-74
2023/02/04 01:02:18;;;;;;;;;24.50;21.75;;;;;4.31;51.86;101251.97;146601;643;47012;-75
2023/02/04 01:05:16;;;;;;;;;23.25;18.00;;;;;4.42;51.11;101234.88;146609;590;46010;-72
2023/02/04 01:08:29;;;;;;;;;27.00;24.25;;;;;2.80;51.25;100914.38;146608;702;47012;-72
2023/02/04 01:11:45;;;;;;;;;25.00;24.25;;;;;4.73;51.45;101221.25;146604;633;46021;-73
2023/02/04 01:14:45;;;;;;;;;23.25;20.50;;;;;4.87;50.81;101219.81;146606;622;46016;-72
2023/02/04 01:17:56;;;;;;;;;23.25;18.50;;;;;4.97;50.67;101213.75;146609;716;46020;-72
2023/02/04 01:21:05;;;;;;;;;40.25;34.00;;;;;5.03;50.99;101214.25;146605;574;46016;-71
2023/02/04 01:24:27;;;;;;;;;;;;;;;;;;;;;
2023/02/04 01:27:36;;;;;;;;;53.25;44.00;;;;;3.89;51.95;100981.66;146605;658;47017;-70
2023/02/04 01:30:50;;;;;;;;;50.00;40.75;;;;;3.38;51.44;100889.41;146607;686;46010;-70
2023/02/04 01:34:02;;;;;;;;;50.50;41.50;;;;;5.06;51.27;101179.41;146603;602;46017;-71
2023/02/04 01:37:05;;;;;;;;;52.50;42.25;;;;;5.10;51.48;101193.41;146607;618;46020;-71
2023/02/04 01:39:57;;;;;;;;;48.25;37.75;;;;;5.16;51.79;101175.91;146605;612;46017;-74
2023/02/04 01:43:17;;;;;;;;;41.00;33.00;;;;;5.23;51.79;101162.78;146605;596;46020;-77
2023/02/04 01:46:52;;;;;;;;;35.50;33.00;;;;;5.24;51.55;101161.09;146607;569;46012;-77
2023/02/04 01:50:05;;;;;;;;;39.25;34.00;;;;;3.24;51.28;100803.72;146609;616;46010;-77
2023/02/04 01:53:31;;;;;;;;;41.00;33.00;;;;;4.27;50.32;100983.84;146607;663;47012;-74
2023/02/04 01:56:37;;;;;;;;;;;;;;;;;;;;;
2023/02/04 01:59:42;;;;;;;;;34.00;28.25;;;;;5.28;52.15;101134.84;146603;563;47012;-73
2023/02/04 02:02:55;;;;;;;;;36.00;30.25;;;;;5.28;50.82;101125.47;146607;570;46011;-73
2023/02/04 02:06:06;;;;;;;;;39.00;31.00;;;;;5.31;51.00;101123.12;146607;716;46012;-73
2023/02/04 02:09:15;;;;;;;;;32.00;28.25;;;;;5.35;51.31;101116.53;146606;583;46028;-74
2023/02/04 02:12:18;;;;;;;;;26.00;25.25;;;;;5.39;51.59;101121.16;146605;736;46915;-73
2023/02/04 02:15:24;;;;;;;;;24.75;23.25;;;;;5.42;50.78;101123.06;146604;597;47010;-72
2023/02/04 02:18:29;;;;;;;;;28.75;26.00;;;;;3.53;50.78;100788.91;146603;571;47013;-70
2023/02/04 02:21:45;;;;;;;;;25.00;23.75;;;;;5.55;50.72;101129.28;146603;571;46912;-72
2023/02/04 02:24:52;;;;;;;;;24.25;22.75;;;;;3.74;50.42;100817.91;146606;596;46017;-70
2023/02/04 02:27:51;;;;;;;;;19.50;16.75;;;;;5.67;51.21;101116.50;146609;615;46020;-69
2023/02/04 02:31:03;;;;;;;;;19.25;15.75;;;;;5.70;50.58;101116.72;146605;564;46016;-75
2023/02/04 02:34:11;;;;;;;;;15.50;13.00;;;;;5.78;51.01;101113.03;146610;588;46021;-73
2023/02/04 02:37:12;;;;;;;;;12.25;11.25;;;;;5.87;50.57;101123.16;146613;564;46022;-72
2023/02/04 02:40:38;;;;;;;;;;;;;;;;;;;;;
2023/02/04 02:43:53;;;;;;;;;15.00;12.75;;;;;6.10;49.81;101111.16;146610;579;46016;-72
2023/02/04 02:46:54;;;;;;;;;13.75;12.25;;;;;6.19;49.75;101109.25;146608;578;46011;-75
2023/02/04 02:49:53;;;;;;;;;13.50;10.00;;;;;6.28;49.30;101109.06;146607;634;46014;-76
2023/02/04 02:53:08;;;;;;;;;17.00;14.75;;;;;4.43;49.16;100775.44;146611;573;47010;-74
2023/02/04 02:56:11;;;;;;;;;12.75;11.50;;;;;6.38;49.24;101116.69;146607;616;46035;-74
2023/02/04 02:59:27;;;;;;;;;17.00;14.00;;;;;6.44;48.97;101119.69;146605;606;47010;-74
2023/02/04 03:02:29;;;;;;;;;12.75;11.00;;;;;6.50;49.47;101119.25;146606;645;46017;-75
2023/02/04 03:05:46;;;;;;;;;16.50;14.50;;;;;6.52;50.00;101116.03;146610;563;46020;-73
2023/02/04 03:09:00;;;;;;;;;19.00;14.00;;;;;6.54;48.80;101108.37;146606;622;46015;-75
2023/02/04 03:12:13;;;;;;;;;16.25;11.00;;;;;6.54;50.27;101098.09;146607;602;46020;-73
2023/02/04 03:15:24;;;;;;;;;12.00;10.25;;;;;6.54;50.10;101103.25;146605;580;46016;-75
2023/02/04 03:18:30;;;;;;;;;;;;;;;;;;;;;
2023/02/04 03:21:39;;;;;;;;;15.75;12.00;;;;;6.51;50.50;101118.47;146606;656;47016;-79
2023/02/04 03:24:51;;;;;;;;;5.00;4.00;;;;;6.45;49.62;101114.69;146617;609;46020;-76
2023/02/04 03:28:13;;;;;;;;;16.25;13.00;;;;;6.44;50.34;101136.06;146608;565;46012;-75
2023/02/04 03:31:14;;;;;;;;;19.50;17.00;;;;;6.50;49.26;101142.44;146607;644;46021;-75
2023/02/04 03:34:20;;;;;;;;;18.50;17.75;;;;;6.54;49.87;101129.00;146605;603;46035;-76
2023/02/04 03:37:33;;;;;;;;;14.50;10.25;;;;;6.58;49.49;101097.53;146611;577;46021;-76
2023/02/04 03:40:28;;;;;;;;;17.75;14.00;;;;;6.65;49.40;101087.78;146606;670;46012;-77
2023/02/04 03:43:38;;;;;;;;;16.00;12.50;;;;;6.67;49.46;101062.16;146612;579;46020;-71
2023/02/04 03:46:58;;;;;;;;;15.50;12.50;;;;;6.64;49.55;101044.78;146613;572;46013;-71
2023/02/04 03:50:15;;;;;;;;;17.00;15.50;;;;;6.71;49.47;101043.53;146608;564;46010;-71
2023/02/04 03:53:21;;;;;;;;;11.50;8.25;;;;;5.19;49.02;100763.94;146608;588;46016;-73
2023/02/04 03:56:51;;;;;;;;;12.75;9.25;;;;;6.78;48.94;101016.50;146610;600;46010;-73
2023/02/04 04:00:03;;;;;;;;;12.25;8.50;;;;;6.82;48.62;101013.34;146609;599;46015;-71
2023/02/04 04:02:58;;;;;;;;;11.75;9.75;;;;;6.85;48.92;101009.34;146615;650;46010;-70
2023/02/04 04:06:13;;;;;;;;;12.00;8.25;;;;;5.00;48.30;100666.63;146608;644;47012;-78
2023/02/04 04:09:14;;;;;;;;;10.50;9.00;;;;;6.86;49.13;100985.34;146615;598;46021;-73
2023/02/04 04:12:23;;;;;;;;;6.25;6.00;;;;;6.91;48.67;100998.53;146607;592;47012;-71
2023/02/04 04:15:34;;;;;;;;;8.25;6.75;;;;;6.93;48.51;101000.44;146615;622;46021;-69
2023/02/04 04:18:41;;;;;;;;;12.75;8.50;;;;;6.97;48.26;100991.22;146611;727;47012;-70
2023/02/04 04:21:39;;;;;;;;;7.50;7.00;;;;;7.01;48.07;101000.06;146612;571;46020;-75
2023/02/04 04:24:51;;;;;;;;;12.75;9.75;;;;;7.04;48.15;101000.28;146611;569;47033;-75
2023/02/04 04:28:17;;;;;;;;;11.75;11.00;;;;;6.21;48.18;100853.69;146617;573;46020;-74
2023/02/04 04:31:22;;;;;;;;;5.75;5.00;;;;;7.09;47.56;101004.09;146613;598;47012;-72
2023/02/04 04:34:56;;;;;;;;;8.75;7.75;;;;;7.10;47.63;101004.22;146617;614;46020;-70
2023/02/04 04:38:09;;;;;;;;;9.50;7.75;;;;;7.10;48.06;101004.22;146610;598;46026;-73
2023/02/04 04:41:12;;;;;;;;;7.00;7.00;;;;;7.12;47.85;101018.09;146612;569;46010;-71
2023/02/04 04:44:11;;;;;;;;;14.25;10.25;;;;;7.16;48.34;101026.91;146613;602;46012;-72
2023/02/04 04:47:17;;;;;;;;;15.00;13.75;;;;;7.15;48.41;101022.56;146614;580;46020;-78
2023/02/04 04:50:11;;;;;;;;;15.00;13.50;;;;;7.15;48.48;101014.81;146614;651;46012;-78
2023/02/04 04:53:15;;;;;;;;;23.50;21.50;;;;;7.15;48.82;101018.28;146616;631;46010;-78
2023/02/04 04:56:10;;;;;;;;;17.00;15.25;;;;;7.15;48.75;101014.81;146611;622;46016;-77
2023/02/04 04:59:18;;;;;;;;;16.00;12.00;;;;;7.12;47.95;101009.47;146612;578;46020;-78
2023/02/04 05:02:19;;;;;;;;;14.50;10.50;;;;;7.12;48.46;100993.97;146612;609;46912;-78
2023/02/04 05:05:38;;;;;;;;;13.25;12.50;;;;;7.12;48.27;100994.88;146614;570;45020;-79
2023/02/04 05:08:47;;;;;;;;;21.00;17.00;;;;;7.14;47.96;100987.25;146611;567;46019;-78
2023/02/04 05:11:52;;;;;;;;;26.75;20.00;;;;;7.18;48.24;100995.28;146611;573;47020;-79
2023/02/04 05:14:56;;;;;;;;;45.75;34.75;;;;;7.20;48.57;100985.09;146610;598;46017;-77
2023/02/04 05:17:53;;;;;;;;;23.75;19.75;;;;;7.21;48.65;100981.72;146616;770;47010;-77
2023/02/04 05:20:55;;;;;;;;;23.75;18.00;;;;;7.22;48.68;100977.44;146612;596;47012;-78
2023/02/04 05:24:08;;;;;;;;;27.25;23.00;;;;;7.24;48.60;100987.09;146611;593;46030;-77
2023/02/04 05:27:03;;;;;;;;;28.25;24.00;;;;;7.24;48.57;100976.78;146614;573;46014;-73
2023/02/04 05:30:12;;;;;;;;;32.50;25.25;;;;;7.26;48.16;100980.38;146613;701;46020;-74
2023/02/04 05:33:32;;;;;;;;;31.50;25.75;;;;;7.26;48.61;100982.03;146609;579;47014;-75
2023/02/04 05:36:36;;;;;;;;;32.50;27.00;;;;;7.27;48.81;100976.09;146613;577;47020;-77
2023/02/04 05:39:32;;;;;;;;;33.75;29.50;;;;;7.25;49.04;100968.25;146614;586;46012;-77
2023/02/04 05:42:29;;;;;;;;;35.00;29.25;;;;;7.27;48.47;100971.81;146615;627;46012;-77
2023/02/04 05:45:47;;;;;;;;;32.00;27.00;;;;;6.20;48.01;100763.47;146612;659;46016;-72
2023/02/04 05:48:47;;;;;;;;;40.25;31.50;;;;;7.33;48.12;100958.47;146615;597;46020;-76
2023/02/04 05:51:57;;;;;;;;;33.50;26.75;;;;;7.35;48.28;100947.47;146609;584;47017;-78
2023/02/04 05:55:04;;;;;;;;;27.00;21.50;;;;;7.39;47.82;100945.97;146615;569;46018;-76
2023/02/04 05:58:14;;;;;;;;;33.75;25.50;;;;;7.42;47.38;100953.91;146611;583;47012;-77
2023/02/04 06:01:21;;;;;;;;;30.75;25.75;;;;;7.46;47.60;100947.28;146612;632;46020;-80
2023/02/04 06:04:19;;;;;;;;;28.75;24.25;;;;;7.48;47.64;100940.53;146612;597;47014;-74
2023/02/04 06:07:30;;;;;;;;;33.50;28.75;;;;;7.50;47.50;100946.69;146615;621;46010;-75
2023/02/04 06:10:31;;;;;;;;;28.75;20.75;;;;;7.53;47.66;100947.78;146614;628;46012;-75
2023/02/04 06:13:47;;;;;;;;;35.75;27.25;;;;;7.55;47.66;100946.19;146614;590;47021;-77
2023/02/04 06:16:51;;;;;;;;;47.00;38.25;;;;;7.56;47.97;100949.66;146613;565;46012;-76
2023/02/04 06:19:50;;;;;;;;;39.50;33.50;;;;;7.59;47.42;100945.59;146615;571;46916;-74
2023/02/04 06:22:46;;;;;;;;;35.50;29.00;;;;;6.78;47.06;100798.34;146612;624;47012;-77
2023/02/04 06:25:59;;;;;;;;;33.50;28.00;;;;;7.66;47.02;100939.16;146612;612;46020;-76
2023/02/04 06:29:03;;;;;;;;;25.00;19.00;;;;;7.71;46.78;100935.22;146608;573;47017;-75
2023/02/04 06:31:58;;;;;;;;;19.00;17.25;;;;;7.76;46.79;100951.00;146614;573;46020;-74
2023/02/04 06:34:55;;;;;;;;;19.50;17.00;;;;;7.79;46.34;100949.53;146613;602;46016;-76
2023/02/04 06:37:51;;;;;;;;;24.25;19.00;;;;;7.83;46.63;100948.91;146612;691;46020;-75
2023/02/04 06:40:55;;;;;;;;;17.00;14.75;;;;;7.87;46.55;100948.31;146609;657;46016;-76
2023/02/04 06:44:07;;;;;;;;;18.25;16.75;;;;;7.91;46.43;100943.34;146612;570;46010;-75
2023/02/04 06:46:59;;;;;;;;;13.25;12.50;;;;;7.97;46.46;100948.91;146606;587;46014;-75
2023/02/04 06:50:21;;;;;;;;;21.25;16.00;;;;;8.02;46.27;100942.37;146610;566;46020;-75
2023/02/04 06:53:18;;;;;;;;;21.00;17.75;;;;;8.06;46.46;100942.66;146603;583;46913;-75
2023/02/04 06:56:37;;;;;;;;;23.50;20.25;;;;;8.08;46.10;100935.03;146605;620;46020;-74
2023/02/04 06:59:42;;;;;;;;;24.00;21.75;;;;;8.16;45.83;100933.84;146606;633;47016;-72
2023/02/04 07:03:07;;;;;;;;;;;;;;;;;;;;;
2023/02/04 07:06:11;;;;;;;;;15.75;15.00;;;;;8.22;45.70;100934.19;146605;674;47013;-80
2023/02/04 07:09:09;;;;;;;;;17.50;14.75;;;;;8.27;45.99;100931.94;146610;668;46020;-73
2023/02/04 07:12:15;;;;;;;;;22.25;19.75;;;;;6.36;45.86;100583.47;146607;577;46035;-72
2023/02/04 07:15:30;;;;;;;;;20.00;16.00;;;;;8.38;45.44;100925.78;146612;594;46021;-72
2023/02/04 07:18:30;;;;;;;;;23.50;20.00;;;;;8.42;45.38;100920.00;146605;597;47016;-73
2023/02/04 07:21:33;;;;;;;;;15.75;13.25;;;;;8.47;45.14;100918.63;146608;601;46021;-71
2023/02/04 07:24:29;;;;;;;;;21.00;16.25;;;;;8.49;44.82;100909.25;146606;638;46016;-71
2023/02/04 07:28:02;;;;;;;;;;;;;;;;;;;;;
2023/02/04 07:31:08;;;;;;;;;29.50;22.50;;;;;8.59;44.69;100915.00;146607;566;47012;-76
2023/02/04 07:34:12;;;;;;;;;21.75;18.50;;;;;8.62;44.89;100913.50;146609;607;46010;-75
2023/02/04 07:37:14;;;;;;;;;38.75;32.50;;;;;8.67;44.88;100901.75;146607;580;46012;-78
2023/02/04 07:40:18;;;;;;;;;36.00;31.50;;;;;8.76;45.60;100898.84;146608;582;46020;-79
2023/02/04 07:43:18;;;;;;;;;38.75;32.50;;;;;8.83;44.99;100885.47;146607;574;46026;-73
2023/02/04 07:46:25;;;;;;;;;45.75;36.50;;;;;8.90;44.78;100878.97;146608;618;46012;-74
2023/02/04 07:49:32;;;;;;;;;30.50;28.75;;;;;9.09;44.88;100886.16;146605;569;47012;-74
2023/02/04 07:52:31;;;;;;;;;26.50;21.25;;;;;9.18;43.62;100891.88;146606;599;46010;-69
2023/02/04 07:55:45;;;;;;;;;28.75;25.00;;;;;9.29;44.29;100889.94;146605;613;46016;-69
2023/02/04 07:58:52;;;;;;;;;37.50;30.00;;;;;9.42;43.82;100885.56;146608;564;46028;-70
2023/02/04 08:02:02;;;;;;;;;35.00;31.00;;;;;9.57;44.44;100872.62;146605;573;46034;-70
2023/02/04 08:04:55;;;;;;;;;30.25;26.00;;;;;9.69;43.58;100870.72;146608;578;46021;-70
2023/02/04 08:08:11;;;;;;;;;;;;;;;;;;;;;
2023/02/04 08:11:35;;;;;;;;;32.25;27.00;;;;;7.96;43.55;100534.03;146610;626;46020;-71
2023/02/04 08:14:31;;;;;;;;;25.50;23.25;;;;;9.09;43.67;100721.47;146606;584;47017;-75
2023/02/04 08:17:32;;;;;;;;;16.00;16.00;;;;;9.95;42.98;100853.16;146609;563;46020;-74
2023/02/04 08:20:31;;;;;;;;;20.75;18.25;;;;;9.99;43.06;100855.09;146604;579;46017;-73
2023/02/04 08:23:41;;;;;;;;;26.00;20.00;;;;;9.98;42.97;100853.34;146610;570;47010;-72
2023/02/04 08:26:34;;;;;;;;;23.25;19.75;;;;;9.95;42.62;100853.16;146604;564;46016;-76
2023/02/04 08:29:26;;;;;;;;;27.50;25.50;;;;;9.96;42.67;100857.53;146608;610;46012;-73
2023/02/04 08:32:28;;;;;;;;;24.75;21.25;;;;;10.01;42.47;100855.22;146606;667;46031;-75
2023/02/04 08:35:22;;;;;;;;;18.50;18.00;;;;;10.05;42.94;100859.75;146610;629;46010;-74
2023/02/04 08:38:15;;;;;;;;;15.00;13.25;;;;;10.09;42.47;100852.25;146608;575;46012;-70
2023/02/04 08:41:12;;;;;;;;;23.00;19.75;;;;;10.21;43.22;100854.59;146608;577;45020;-73
2023/02/04 08:44:05;;;;;;;;;20.25;17.75;;;;;10.51;42.62;100847.63;146607;583;47031;-75
2023/02/04 08:46:57;;;;;;;;;25.75;18.75;;;;;10.92;43.20;100842.81;146614;578;46020;-74
2023/02/04 08:49:58;;;;;;;;;11.25;11.25;;;;;11.33;42.70;100850.09;146605;579;48016;-74
2023/02/04 08:52:56;;;;;;;;;7.75;5.50;;;;;11.59;42.49;100854.00;146613;621;46020;-75
2023/02/04 08:55:55;;;;;;;;;6.00;5.00;;;;;11.76;42.59;100844.44;146609;577;47016;-71
2023/02/04 08:58:54;;;;;;;;;5.00;5.00;;;;;11.99;41.78;100833.47;146616;604;46010;-73
2023/02/04 09:01:51;;;;;;;;;5.75;5.75;;;;;12.18;42.22;100845.62;146609;582;47032;-70
2023/02/04 09:04:50;;;;;;;;;9.50;6.75;;;;;12.36;41.57;100842.97;146616;604;46011;-71
2023/02/04 09:07:52;;;;;;;;;6.50;5.25;;;;;12.42;42.00;100838.03;146616;569;46012;-71
2023/02/04 09:10:57;;;;;;;;;6.00;6.00;;;;;12.58;42.44;100838.72;146616;594;46010;-73
2023/02/04 09:13:55;;;;;;;;;8.50;6.25;;;;;12.85;42.45;100829.56;146611;582;46012;-73
2023/02/04 09:17:04;;;;;;;;;3.75;2.50;;;;;13.15;42.21;100840.41;146618;681;46010;-75
2023/02/04 09:20:17;;;;;;;;;5.75;4.75;;;;;13.43;42.26;100832.88;146612;575;46017;-74
2023/02/04 09:23:36;;;;;;;;;4.25;2.75;;;;;13.74;41.04;100825.50;146612;648;47020;-72
2023/02/04 09:26:38;;;;;;;;;2.50;1.75;;;;;14.02;40.05;100814.44;146612;592;46017;-71
2023/02/04 09:30:10;;;;;;;;;3.00;3.00;;;;;14.26;40.08;100816.19;146611;673;47012;-72
2023/02/04 09:33:22;;;;;;;;;6.00;5.25;;;;;14.52;39.83;100801.56;146612;609;47012;-72
2023/02/04 09:36:31;;;;;;;;;8.50;7.25;;;;;14.77;39.82;100812.03;146613;610;46020;-71
2023/02/04 09:39:54;;;;;;;;;7.00;5.25;;;;;14.92;38.24;100806.47;146612;600;47914;-70
2023/02/04 09:43:02;;;;;;;;;2.75;2.75;;;;;14.93;38.76;100816.06;146620;588;46021;-69
2023/02/04 09:46:18;;;;;;;;;8.00;6.25;;;;;15.11;38.74;100799.25;146609;603;47014;-71
2023/02/04 09:49:29;;;;;;;;;6.75;6.75;;;;;15.21;39.27;100789.16;146614;677;46020;-70
2023/02/04 09:52:27;;;;;;;;;4.00;3.50;;;;;15.31;37.87;100779.91;146606;605;47915;-71
2023/02/04 09:55:36;;;;;;;;;6.00;5.00;;;;;15.44;38.51;100769.00;146615;692;46020;-73
2023/02/04 09:58:35;;;;;;;;;4.75;3.50;;;;;15.51;37.84;100766.59;146614;571;46016;-73
2023/02/04 10:01:48;;;;;;;;;7.25;5.00;;;;;15.51;38.27;100767.47;146618;584;46020;-71
2023/02/04 10:05:01;;;;;;;;;5.00;5.00;;;;;14.01;39.60;100478.94;146612;592;47014;-72
2023/02/04 10:07:58;;;;;;;;;4.00;4.00;;;;;15.74;38.43;100754.31;146615;613;46020;-70
2023/02/04 10:11:14;;;;;;;;;6.75;6.75;;;;;15.89;37.82;100757.38;146612;708;46016;-71
2023/02/04 10:14:37;;;;;;;;;6.75;5.50;;;;;16.02;37.64;100748.16;146615;616;46010;-71
2023/02/04 10:17:39;;;;;;;;;3.00;3.00;;;;;16.10;38.56;100736.19;146616;582;46012;-71
2023/02/04 10:20:40;;;;;;;;;6.75;6.25;;;;;16.26;37.93;100733.19;146613;578;47021;-71
2023/02/04 10:23:42;;;;;;;;;8.75;5.75;;;;;16.45;38.30;100728.44;146613;690;46012;-72
2023/02/04 10:26:49;;;;;;;;;2.00;2.00;;;;;16.63;37.30;100732.47;146612;707;46021;-72
2023/02/04 10:30:06;;;;;;;;;3.50;3.50;;;;;16.73;38.70;100725.75;146612;634;46914;-71
2023/02/04 10:33:02;;;;;;;;;8.25;5.25;;;;;16.82;37.59;100714.63;146612;706;45020;-70
2023/02/04 10:36:15;;;;;;;;;4.50;3.50;;;;;16.91;38.04;100713.97;146611;564;47016;-70
2023/02/04 10:39:30;;;;;;;;;8.50;8.50;;;;;15.49;38.05;100468.66;146613;605;47010;-70
2023/02/04 10:43:06;;;;;;;;;8.00;7.75;;;;;16.22;39.24;100574.34;146615;689;46012;-73
2023/02/04 10:46:10;;;;;;;;;20.50;15.50;;;;;17.05;37.67;100696.88;146608;584;46020;-72
2023/02/04 10:49:29;;;;;;;;;5.00;2.00;;;;;17.11;38.22;100697.03;146608;656;46914;-73
2023/02/04 10:56:33;;;;;;;;;4.50;3.50;;;;;17.30;38.35;100687.87;146615;650;46014;-70
2023/02/04 10:59:30;;;;;;;;;10.00;7.00;;;;;17.36;37.06;100680.16;146612;647;47010;-69
2023/02/04 11:03:14;;;;;;;;;1.33;1.33;;;;;15.85;38.19;100411.25;146612;584;46016;-71
2023/02/04 11:06:48;;;;;;;;;2.50;2.50;;;;;15.73;38.67;100379.56;146614;580;46020;-67
2023/02/04 11:10:04;;;;;;;;;3.75;3.75;;;;;15.96;38.22;100415.88;146613;625;46013;-68
2023/02/04 11:13:08;;;;;;;;;1.00;1.00;;;;;17.35;38.82;100639.06;146612;638;46022;-70
2023/02/04 11:16:52;;;;;;;;;1.75;1.75;;;;;15.82;35.37;100347.56;146613;563;46016;-68
2023/02/04 11:19:46;;;;;;;;;5.75;5.00;;;;;17.37;36.33;100620.75;146612;575;47010;-71
2023/02/04 11:22:52;;;;;;;;;6.75;4.75;;;;;17.41;38.40;100614.72;146613;573;46016;-70
2023/02/04 11:26:19;;;;;;;;;4.00;4.00;;;;;17.59;36.38;100627.34;146614;599;46010;-71
2023/02/04 11:29:42;;;;;;;;;6.00;3.00;;;;;16.99;37.89;100482.84;146610;569;47014;-72
2023/02/04 11:33:11;;;;;;;;;2.00;2.00;;;;;16.47;37.97;100376.06;146611;615;47021;-71
2023/02/04 11:36:15;;;;;;;;;6.75;5.75;;;;;17.94;35.50;100614.97;146612;575;46016;-69
2023/02/04 11:39:21;;;;;;;;;6.50;5.00;;;;;17.92;36.92;100612.34;146617;565;46021;-70
2023/02/04 11:42:54;;;;;;;;;3.25;3.25;;;;;16.40;38.03;100348.87;146611;570;47012;-70
2023/02/04 11:45:56;;;;;;;;;3.25;3.25;;;;;17.77;35.45;100593.66;146638;637;46020;-69
2023/02/04 11:49:20;;;;;;;;;2.50;1.00;;;;;16.35;37.84;100337.44;146631;569;45017;-70
2023/02/04 11:52:21;;;;;;;;;4.25;4.25;;;;;17.98;36.15;100585.34;146636;565;45012;-70
2023/02/04 11:55:18;;;;;;;;;3.00;1.00;;;;;18.14;36.26;100592.63;146635;571;45016;-70
2023/02/04 11:58:27;;;;;;;;;1.67;1.33;;;;;18.26;37.31;100584.09;146637;563;46010;-70
2023/02/04 12:01:43;;;;;;;;;11.75;9.25;;;;;17.00;37.32;100337.91;146633;611;45013;-69
2023/02/04 12:04:41;;;;;;;;;9.75;7.75;;;;;18.52;35.36;100565.28;146637;633;45010;-70
2023/02/04 12:07:48;;;;;;;;;11.25;10.75;;;;;18.66;35.83;100569.00;146632;581;45012;-69
2023/02/04 12:10:57;;;;;;;;;33.50;28.00;;;;;18.68;35.16;100562.91;146628;600;46910;-69
2023/02/04 12:13:59;;;;;;;;;16.25;12.25;;;;;18.64;34.63;100563.72;146626;628;46012;-70
2023/02/04 12:16:55;;;;;;;;;5.50;5.00;;;;;18.61;34.98;100553.19;146638;660;45021;-69
2023/02/04 12:20:18;;;;;;;;;11.75;10.50;;;;;18.58;34.58;100553.13;146635;570;46016;-70
2023/02/04 12:23:37;;;;;;;;;7.00;7.00;;;;;17.79;35.62;100418.88;146636;633;46010;-69
2023/02/04 12:26:42;;;;;;;;;5.75;4.00;;;;;18.62;36.02;100556.69;146635;628;46016;-70
2023/02/04 12:29:45;;;;;;;;;9.75;7.25;;;;;18.70;35.43;100541.94;146634;634;45020;-69
2023/02/04 12:32:53;;;;;;;;;10.00;9.75;;;;;17.22;36.27;100272.81;146632;721;46012;-69
2023/02/04 12:35:52;;;;;;;;;7.75;7.00;;;;;18.84;35.13;100540.41;146639;578;45010;-69
2023/02/04 12:38:58;;;;;;;;;15.50;12.00;;;;;18.85;34.59;100531.69;146630;651;46010;-69
2023/02/04 12:42:08;;;;;;;;;6.00;5.00;;;;;18.95;33.57;100527.44;146636;566;45010;-70
2023/02/04 12:45:10;;;;;;;;;4.75;4.75;;;;;19.04;35.11;100532.84;146626;591;46012;-69
2023/02/04 12:48:14;;;;;;;;;8.25;6.25;;;;;18.96;32.64;100533.59;146633;628;45010;-70
2023/02/04 12:51:19;;;;;;;;;6.75;4.50;;;;;17.35;34.45;100269.53;146635;669;45016;-69
2023/02/04 12:54:45;;;;;;;;;;;;;;;;;;;;;
2023/02/04 12:57:52;;;;;;;;;5.75;5.50;;;;;18.42;34.28;100527.50;146634;576;46010;-69
2023/02/04 13:01:34;;;;;;;;;17.75;15.00;;;;;16.39;36.28;100259.03;146632;572;45021;-70
2023/02/04 13:04:43;;;;;;;;;12.50;10.75;;;;;17.74;36.03;100528.00;146627;663;46012;-69
2023/02/04 13:07:45;;;;;;;;;10.25;9.00;;;;;17.70;36.02;100526.19;146636;580;45010;-70
2023/02/04 13:10:50;;;;;;;;;;;;;;;;;;;;;
2023/02/04 13:13:57;;;;;;;;;9.50;8.00;;;;;17.35;36.73;100517.63;146634;707;45913;-68
2023/02/04 13:17:00;;;;;;;;;9.00;8.00;;;;;16.45;37.16;100394.38;146634;613;46014;-69
2023/02/04 13:19:56;;;;;;;;;8.75;8.00;;;;;17.22;36.85;100519.97;146635;578;46012;-69
2023/02/04 13:23:03;;;;;;;;;13.25;11.50;;;;;17.60;36.85;100511.13;146624;611;46917;-70
2023/02/04 13:26:09;;;;;;;;;;;;;;;;;;;;;
2023/02/04 13:29:10;;;;;;;;;5.00;4.25;;;;;18.57;33.95;100497.97;146636;599;45012;-69
2023/02/04 13:32:08;;;;;;;;;6.75;6.75;;;;;18.79;32.55;100484.31;146634;572;45020;-69
2023/02/04 13:35:05;;;;;;;;;12.25;8.50;;;;;18.87;34.60;100502.81;146625;675;46915;-69
2023/02/04 13:38:06;;;;;;;;;7.75;5.00;;;;;18.23;34.55;100395.97;146635;703;46010;-71
2023/02/04 13:41:36;;;;;;;;;;;;;;;;;;;;;
2023/02/04 13:44:39;;;;;;;;;9.75;8.75;;;;;17.76;35.73;100494.84;146616;627;46021;-71
2023/02/04 13:47:38;;;;;;;;;3.00;2.00;;;;;17.21;35.66;100492.03;146616;627;46012;-70
2023/02/04 13:50:42;;;;;;;;;3.25;3.25;;;;;16.90;35.94;100490.50;146616;685;46010;-71
2023/02/04 13:53:40;;;;;;;;;2.33;2.33;;;;;17.05;36.03;100488.19;146615;591;46017;-70
2023/02/04 13:56:41;;;;;;;;;1.50;0.25;;;;;17.26;35.78;100484.28;146614;626;46020;-70
2023/02/04 13:59:40;;;;;;;;;7.75;6.25;;;;;16.54;36.02;100371.00;146610;716;46034;-70
2023/02/04 14:02:45;;;;;;;;;11.50;9.50;;;;;17.03;35.12;100495.13;146614;714;46010;-69
2023/02/04 14:05:38;;;;;;;;;5.75;5.00;;;;;16.87;35.50;100500.03;146613;564;46016;-70
2023/02/04 14:08:39;;;;;;;;;6.00;5.00;;;;;16.75;35.94;100493.66;146613;559;46021;-70
2023/02/04 14:11:34;;;;;;;;;2.25;2.25;;;;;16.87;36.74;100489.53;146612;582;46014;-70
2023/02/04 14:14:31;;;;;;;;;4.00;4.00;;;;;17.11;35.29;100492.69;146616;672;46010;-71
2023/02/04 14:17:32;;;;;;;;;2.00;2.00;;;;;17.08;35.42;100492.62;146612;681;46016;-70
2023/02/04 14:20:24;;;;;;;;;3.00;2.00;;;;;16.85;35.40;100493.03;146613;590;47020;-70
2023/02/04 14:23:23;;;;;;;;;2.33;1.00;;;;;16.23;35.95;100386.84;146614;588;46014;-69
2023/02/04 14:26:17;;;;;;;;;3.25;2.50;;;;;16.85;36.23;100484.25;146617;606;46010;-70
2023/02/04 14:29:18;;;;;;;;;7.50;7.50;;;;;16.90;35.08;100487.87;146615;630;46014;-70
2023/02/04 14:32:23;;;;;;;;;9.25;7.25;;;;;16.09;35.52;100374.34;146613;660;46021;-70
2023/02/04 14:35:28;;;;;;;;;18.50;17.50;;;;;15.69;36.01;100343.75;146602;603;47016;-70
2023/02/04 14:38:21;;;;;;;;;14.50;12.75;;;;;16.67;36.01;100495.19;146609;597;46021;-71
2023/02/04 14:41:20;;;;;;;;;21.75;20.75;;;;;16.65;36.29;100498.63;146605;613;46016;-70
2023/02/04 14:44:28;;;;;;;;;4.75;4.75;;;;;16.58;36.07;100481.91;146611;578;46020;-70
2023/02/04 14:47:33;;;;;;;;;10.00;10.00;;;;;16.49;36.12;100490.41;146604;580;46912;-70